createdAt,value
2023-04-12T00:01:42.377Z,1.60
2023-04-12T00:04:14.530Z,1.87
2023-04-12T00:06:48.409Z,2.40
2023-04-12T00:09:20.745Z,1.90
2023-04-12T00:11:52.029Z,2.10
2023-04-12T00:14:23.856Z,2.27
2023-04-12T00:16:56.304Z,2.00
2023-04-12T00:19:30.951Z,2.13
2023-04-12T00:22:02.596Z,1.83
2023-04-12T00:24:33.958Z,1.90
2023-04-12T00:27:06.108Z,1.50
2023-04-12T00:29:37.508Z,1.73
2023-04-12T00:32:08.970Z,1.63
2023-04-12T00:34:40.443Z,1.93
2023-04-12T00:37:12.217Z,2.00
2023-04-12T00:39:44.117Z,2.23
2023-04-12T00:42:15.499Z,2.27
2023-04-12T00:44:46.931Z,1.90
2023-04-12T00:47:18.879Z,2.63
2023-04-12T00:49:50.455Z,1.63
2023-04-12T00:52:22.201Z,1.90
2023-04-12T00:54:54.328Z,2.30
2023-04-12T00:57:25.776Z,1.53
2023-04-12T00:59:57.144Z,2.00
2023-04-12T01:02:30.910Z,1.80
2023-04-12T01:05:02.938Z,1.47
2023-04-12T01:07:47.709Z,1.70
2023-04-12T01:10:24.970Z,1.80
2023-04-12T01:13:11.806Z,2.20
2023-04-12T01:16:03.180Z,1.92
2023-04-12T01:18:40.811Z,1.67
2023-04-12T01:21:24.403Z,1.93
2023-04-12T01:24:13.686Z,1.70
2023-04-12T01:26:47.358Z,1.50
2023-04-12T01:29:22.259Z,1.57
2023-04-12T01:31:58.756Z,1.67
2023-04-12T01:34:32.306Z,1.93
2023-04-12T01:37:03.769Z,1.73
2023-04-12T01:39:35.786Z,1.83
2023-04-12T01:42:07.138Z,1.93
2023-04-12T01:44:38.422Z,1.70
2023-04-12T01:47:09.823Z,1.77
2023-04-12T01:50:24.432Z,1.73
2023-04-12T01:53:03.403Z,1.80
2023-04-12T01:55:37.773Z,2.10
2023-04-12T01:58:11.726Z,1.87
2023-04-12T02:00:44.911Z,1.70
2023-04-12T02:03:18.492Z,1.70
2023-04-12T02:05:52.117Z,1.43
2023-04-12T02:08:23.728Z,2.07
2023-04-12T02:10:57.330Z,1.80
2023-04-12T02:13:28.646Z,1.73
2023-04-12T02:16:02.305Z,1.70
2023-04-12T02:18:36.804Z,2.03
2023-04-12T02:21:08.212Z,1.30
2023-04-12T02:23:39.572Z,1.70
2023-04-12T02:26:11.311Z,1.73
2023-04-12T02:28:42.998Z,1.73
2023-04-12T02:31:15.478Z,1.77
2023-04-12T02:33:47.004Z,1.83
2023-04-12T02:36:18.480Z,2.20
2023-04-12T02:38:52.985Z,2.00
2023-04-12T02:41:25.201Z,1.70
2023-04-12T02:43:56.676Z,1.70
2023-04-12T02:46:28.527Z,1.80
2023-04-12T02:49:00.195Z,1.43
2023-04-12T02:51:31.560Z,1.83
2023-04-12T02:54:02.995Z,1.73
2023-04-12T02:56:37.398Z,1.33
2023-04-12T02:59:08.702Z,1.37
2023-04-12T03:01:40.117Z,1.43
2023-04-12T03:04:11.909Z,1.43
2023-04-12T03:06:53.558Z,1.40
2023-04-12T03:09:25.222Z,1.50
2023-04-12T03:11:56.581Z,1.70
2023-04-12T03:14:28.007Z,2.17
2023-04-12T03:16:59.418Z,1.50
2023-04-12T03:19:33.027Z,1.60
2023-04-12T03:22:04.758Z,1.77
2023-04-12T03:24:37.155Z,2.10
2023-04-12T03:27:08.717Z,1.50
2023-04-12T03:29:40.263Z,1.20
2023-04-12T03:32:11.648Z,1.67
2023-04-12T03:34:43.036Z,1.50
2023-04-12T03:37:14.617Z,1.60
2023-04-12T03:39:47.999Z,1.50
2023-04-12T03:42:32.191Z,2.60
2023-04-12T03:45:05.276Z,1.60
2023-04-12T03:47:37.159Z,1.50
2023-04-12T03:50:12.345Z,1.73
2023-04-12T03:52:43.981Z,1.40
2023-04-12T03:55:18.065Z,1.27
2023-04-12T03:57:49.445Z,1.30
2023-04-12T04:00:21.317Z,1.37
2023-04-12T04:02:52.913Z,1.53
2023-04-12T04:05:24.509Z,1.20
2023-04-12T04:07:56.862Z,1.70
2023-04-12T04:10:28.595Z,1.30
2023-04-12T04:13:00.149Z,1.20
2023-04-12T04:15:32.833Z,1.00
2023-04-12T04:18:05.588Z,1.90
2023-04-12T04:20:37.177Z,1.37
2023-04-12T04:23:10.208Z,1.37
2023-04-12T04:25:41.853Z,1.50
2023-04-12T04:28:17.089Z,1.27
2023-04-12T04:30:48.690Z,1.40
2023-04-12T04:33:21.155Z,2.03
2023-04-12T04:35:52.850Z,1.00
2023-04-12T04:38:27.242Z,1.40
2023-04-12T04:41:02.459Z,1.30
2023-04-12T04:43:34.260Z,1.50
2023-04-12T04:46:06.251Z,1.50
2023-04-12T04:48:37.961Z,1.40
2023-04-12T04:51:09.650Z,1.30
2023-04-12T04:53:41.054Z,1.63
2023-04-12T04:56:12.692Z,1.60
2023-04-12T04:58:44.059Z,1.30
2023-04-12T05:01:16.955Z,1.70
2023-04-12T05:03:49.911Z,1.47
2023-04-12T05:06:22.618Z,1.20
2023-04-12T05:08:54.326Z,1.00
2023-04-12T05:11:26.051Z,1.83
2023-04-12T05:13:57.379Z,2.00
2023-04-12T05:16:29.013Z,1.27
2023-04-12T05:19:00.312Z,1.50
2023-04-12T05:21:33.203Z,2.33
2023-04-12T05:24:04.844Z,1.87
2023-04-12T05:26:36.149Z,1.10
2023-04-12T05:29:08.500Z,1.57
2023-04-12T05:31:39.972Z,1.53
2023-04-12T05:34:17.727Z,1.33
2023-04-12T05:36:49.094Z,2.17
2023-04-12T05:39:20.896Z,1.47
2023-04-12T05:41:52.452Z,2.50
2023-04-12T05:44:24.654Z,1.63
2023-04-12T05:46:56.320Z,2.00
2023-04-12T05:49:31.725Z,1.30
2023-04-12T05:52:05.714Z,1.10
2023-04-12T05:54:37.462Z,1.13
2023-04-12T05:57:09.978Z,1.33
2023-04-12T05:59:41.324Z,1.03
2023-04-12T06:02:12.816Z,1.10
2023-04-12T06:04:50.934Z,1.30
2023-04-12T06:07:23.251Z,1.17
2023-04-12T06:09:54.716Z,1.20
2023-04-12T06:12:26.086Z,1.30
2023-04-12T06:14:57.446Z,1.33
2023-04-12T06:17:28.802Z,1.07
2023-04-12T06:20:00.221Z,1.03
2023-04-12T06:22:33.268Z,1.20
2023-04-12T06:25:05.318Z,1.30
2023-04-12T06:27:36.641Z,1.30
2023-04-12T06:30:08.860Z,1.23
2023-04-12T06:32:40.460Z,1.57
2023-04-12T06:35:11.829Z,1.23
2023-04-12T06:37:43.210Z,1.40
2023-04-12T06:40:14.738Z,1.50
2023-04-12T06:42:46.558Z,1.50
2023-04-12T06:45:17.875Z,1.57
2023-04-12T06:47:49.356Z,1.13
2023-04-12T06:50:20.734Z,1.10
2023-04-12T06:52:52.216Z,1.57
2023-04-12T06:55:23.644Z,1.17
2023-04-12T06:57:55.561Z,0.90
2023-04-12T07:00:27.042Z,1.50
2023-04-12T07:02:58.433Z,3.53
2023-04-12T07:05:30.260Z,3.97
2023-04-12T07:08:01.761Z,2.30
2023-04-12T07:10:33.082Z,1.37
2023-04-12T07:13:07.137Z,0.80
2023-04-12T07:15:38.544Z,2.67
2023-04-12T07:18:10.073Z,1.30
2023-04-12T07:20:41.676Z,8.23
2023-04-12T07:23:13.105Z,1.63
2023-04-12T07:25:44.547Z,1.13
2023-04-12T07:28:15.999Z,1.30
2023-04-12T07:30:47.280Z,1.13
2023-04-12T07:33:19.840Z,1.00
2023-04-12T07:35:51.503Z,1.20
2023-04-12T07:41:02.886Z,2.20
2023-04-12T07:43:34.188Z,1.00
2023-04-12T07:46:08.372Z,1.20
2023-04-12T07:48:39.859Z,1.57
2023-04-12T07:53:28.563Z,1.40
2023-04-12T07:55:59.917Z,1.40
2023-04-12T07:58:31.376Z,1.60
2023-04-12T08:01:02.678Z,1.53
2023-04-12T08:03:34.038Z,1.23
2023-04-12T08:06:05.724Z,2.30
2023-04-12T08:09:15.443Z,1.40
2023-04-12T08:11:47.287Z,1.77
2023-04-12T08:14:18.664Z,1.70
2023-04-12T08:16:50.080Z,0.90
2023-04-12T08:19:21.374Z,1.17
2023-04-12T08:21:53.041Z,2.67
2023-04-12T08:24:24.412Z,2.00
2023-04-12T08:26:56.170Z,1.50
2023-04-12T08:29:27.442Z,1.90
2023-04-12T08:32:00.741Z,1.53
2023-04-12T08:34:33.041Z,1.30
2023-04-12T08:37:04.450Z,1.60
2023-04-12T08:39:37.424Z,0.97
2023-04-12T08:42:08.783Z,1.20
2023-04-12T08:44:40.097Z,1.07
2023-04-12T08:47:11.833Z,1.10
2023-04-12T08:49:43.189Z,1.00
2023-04-12T08:52:15.316Z,1.10
2023-04-12T08:54:47.565Z,1.37
2023-04-12T08:57:19.222Z,1.30
2023-04-12T08:59:53.467Z,1.20
2023-04-12T09:02:24.957Z,1.50
2023-04-12T09:04:56.612Z,1.13
2023-04-12T09:07:30.140Z,1.50
2023-04-12T09:10:01.639Z,1.40
2023-04-12T09:12:33.174Z,1.47
2023-04-12T09:15:13.776Z,1.37
2023-04-12T09:17:46.012Z,1.70
2023-04-12T09:20:17.430Z,1.70
2023-04-12T09:22:49.900Z,1.20
2023-04-12T09:25:41.429Z,1.43
2023-04-12T09:28:24.104Z,1.20
2023-04-12T09:30:57.812Z,1.27
2023-04-12T09:33:37.186Z,1.10
2023-04-12T09:36:13.330Z,1.20
2023-04-12T09:41:36.351Z,1.30
2023-04-12T09:44:07.924Z,1.40
2023-04-12T09:46:50.816Z,1.37
2023-04-12T09:49:37.952Z,1.20
2023-04-12T09:52:14.086Z,1.17
2023-04-12T09:57:21.455Z,1.00
2023-04-12T09:59:54.605Z,1.20
2023-04-12T10:02:28.186Z,1.20
2023-04-12T10:04:59.956Z,1.60
2023-04-12T10:07:31.464Z,1.70
2023-04-12T10:10:04.138Z,1.77
2023-04-12T10:12:37.153Z,1.80
2023-04-12T10:15:15.458Z,1.10
2023-04-12T10:17:52.881Z,1.10
2023-04-12T10:20:28.072Z,1.20
2023-04-12T10:23:01.027Z,1.43
2023-04-12T10:25:32.540Z,1.13
2023-04-12T10:28:14.658Z,1.10
2023-04-12T10:30:49.232Z,1.10
2023-04-12T10:33:26.412Z,1.27
2023-04-12T10:36:02.829Z,1.43
2023-04-12T10:38:46.921Z,1.97
2023-04-12T10:41:20.517Z,1.80
2023-04-12T10:43:52.125Z,1.40
2023-04-12T10:46:39.671Z,1.37
2023-04-12T10:49:15.521Z,1.37
2023-04-12T10:52:02.507Z,1.63
2023-04-12T10:54:35.492Z,1.70
2023-04-12T10:57:07.441Z,1.83
2023-04-12T10:59:56.782Z,1.90
2023-04-12T11:02:28.482Z,1.73
2023-04-12T11:05:05.552Z,1.70
2023-04-12T11:07:40.552Z,1.63
2023-04-12T11:10:16.508Z,1.70
2023-04-12T11:12:57.047Z,1.60
2023-04-12T11:15:33.120Z,1.80
2023-04-12T11:18:06.077Z,2.00
2023-04-12T11:20:39.020Z,1.70
2023-04-12T11:23:11.758Z,1.77
2023-04-12T11:25:44.416Z,1.23
2023-04-12T11:28:28.551Z,2.30
2023-04-12T11:31:01.344Z,1.37
2023-04-12T11:33:37.357Z,1.20
2023-04-12T11:36:12.623Z,1.10
2023-04-12T11:38:45.998Z,1.20
2023-04-12T11:41:18.371Z,0.87
2023-04-12T11:43:49.864Z,1.13
2023-04-12T11:46:21.372Z,1.20
2023-04-12T11:48:53.175Z,1.10
2023-04-12T11:51:25.553Z,0.90
2023-04-12T11:53:58.216Z,0.80
2023-04-12T11:56:31.671Z,0.97
2023-04-12T11:59:03.823Z,1.20
2023-04-12T12:01:36.037Z,0.80
2023-04-12T12:04:07.722Z,1.23
2023-04-12T12:06:39.660Z,1.20
2023-04-12T12:09:11.527Z,1.00
2023-04-12T12:11:42.909Z,0.90
2023-04-12T12:14:19.210Z,1.20
2023-04-12T12:16:58.238Z,0.90
2023-04-12T12:19:37.391Z,1.00
2023-04-12T12:22:13.076Z,1.00
2023-04-12T12:24:47.132Z,1.00
2023-04-12T12:27:20.663Z,1.20
2023-04-12T12:29:54.362Z,1.07
2023-04-12T12:32:25.750Z,1.20
2023-04-12T12:34:58.078Z,2.30
2023-04-12T12:37:30.832Z,1.90
2023-04-12T12:40:16.228Z,1.17
2023-04-12T12:42:50.211Z,1.30
2023-04-12T12:45:24.951Z,1.70
2023-04-12T12:47:56.361Z,1.30
2023-04-12T12:50:33.818Z,1.30
2023-04-12T12:53:06.324Z,1.70
2023-04-12T12:55:37.630Z,1.80
2023-04-12T12:58:08.888Z,1.43
2023-04-12T13:00:41.263Z,1.57
2023-04-12T13:03:13.386Z,1.87
2023-04-12T13:05:44.857Z,1.53
2023-04-12T13:08:16.247Z,1.30
2023-04-12T13:10:47.719Z,1.80
2023-04-12T13:13:19.587Z,2.20
2023-04-12T13:15:52.737Z,1.30
2023-04-12T13:18:24.209Z,1.40
2023-04-12T13:20:55.511Z,1.47
2023-04-12T13:23:26.915Z,1.53
2023-04-12T13:25:58.188Z,1.53
2023-04-12T13:28:30.486Z,1.63
2023-04-12T13:31:01.920Z,2.33
2023-04-12T13:33:33.185Z,1.80
2023-04-12T13:36:04.686Z,2.03
2023-04-12T13:38:36.552Z,1.80
2023-04-12T13:41:07.900Z,2.07
2023-04-12T13:43:40.777Z,1.63
2023-04-12T13:46:13.206Z,1.83
2023-04-12T13:48:44.554Z,1.73
2023-04-12T13:51:15.830Z,1.63
2023-04-12T13:53:47.363Z,2.27
2023-04-12T13:56:18.840Z,1.53
2023-04-12T13:58:50.257Z,1.80
2023-04-12T14:01:23.539Z,1.90
2023-04-12T14:03:55.661Z,1.70
2023-04-12T14:06:27.084Z,1.70
2023-04-12T14:08:59.063Z,1.80
2023-04-12T14:11:30.686Z,1.80
2023-04-12T14:14:02.048Z,2.30
2023-04-12T14:16:33.932Z,1.80
2023-04-12T14:19:05.341Z,2.07
2023-04-12T14:21:37.564Z,1.93
2023-04-12T14:24:08.957Z,1.60
2023-04-12T14:26:40.490Z,1.70
2023-04-12T14:29:12.305Z,1.70
2023-04-12T14:31:43.719Z,2.07
2023-04-12T14:34:15.157Z,2.13
2023-04-12T14:36:46.539Z,1.93
2023-04-12T14:39:17.901Z,2.00
2023-04-12T14:41:49.260Z,2.20
2023-04-12T14:44:21.890Z,2.57
2023-04-12T14:46:54.620Z,1.53
2023-04-12T14:49:26.017Z,1.73
2023-04-12T14:51:57.306Z,1.50
2023-04-12T14:54:28.632Z,1.50
2023-04-12T14:56:59.978Z,1.37
2023-04-12T14:59:31.949Z,1.70
2023-04-12T15:02:03.812Z,1.70
2023-04-12T15:04:35.416Z,1.67
2023-04-12T15:07:06.874Z,1.70
2023-04-12T15:09:38.457Z,2.07
2023-04-12T15:12:10.334Z,2.03
2023-04-12T15:14:41.765Z,1.90
2023-04-12T15:17:13.231Z,1.70
2023-04-12T15:19:44.648Z,1.97
2023-04-12T15:22:16.116Z,1.60
2023-04-12T15:24:47.480Z,1.53
2023-04-12T15:27:18.896Z,2.30
2023-04-12T15:29:50.256Z,1.80
2023-04-12T15:32:22.893Z,2.40
2023-04-12T15:34:58.143Z,2.20
2023-04-12T15:37:29.490Z,2.20
2023-04-12T15:40:01.762Z,1.70
2023-04-12T15:42:33.049Z,2.10
2023-04-12T15:45:04.845Z,3.03
2023-04-12T15:47:36.621Z,2.67
2023-04-12T15:50:08.619Z,2.10
2023-04-12T15:52:42.941Z,1.50
2023-04-12T15:55:18.272Z,2.23
2023-04-12T15:57:49.550Z,2.00
2023-04-12T16:00:26.225Z,2.20
2023-04-12T16:02:58.413Z,2.57
2023-04-12T16:05:30.904Z,1.87
2023-04-12T16:08:03.058Z,2.33
2023-04-12T16:10:35.202Z,2.30
2023-04-12T16:13:06.575Z,2.00
2023-04-12T16:15:38.312Z,2.10
2023-04-12T16:18:09.727Z,2.23
2023-04-12T16:20:41.184Z,1.90
2023-04-12T16:23:13.345Z,1.97
2023-04-12T16:25:44.711Z,2.40
2023-04-12T16:28:17.991Z,2.43
2023-04-12T16:30:50.085Z,2.87
2023-04-12T16:33:21.524Z,2.07
2023-04-12T16:35:52.804Z,4.40
2023-04-12T16:38:24.180Z,2.53
2023-04-12T16:40:55.649Z,2.13
2023-04-12T16:43:27.318Z,2.03
2023-04-12T16:46:04.829Z,2.43
2023-04-12T16:48:38.624Z,2.70
2023-04-12T16:51:10.007Z,2.27
2023-04-12T16:53:41.456Z,2.70
2023-04-12T16:56:12.782Z,2.10
2023-04-12T16:58:44.186Z,2.43
2023-04-12T17:01:16.930Z,2.50
2023-04-12T17:03:49.174Z,2.73
2023-04-12T17:06:20.884Z,2.93
2023-04-12T17:08:52.471Z,3.30
2023-04-12T17:11:23.706Z,2.80
2023-04-12T17:13:55.361Z,2.50
2023-04-12T17:16:26.824Z,2.60
2023-04-12T17:18:58.257Z,3.03
2023-04-12T17:21:30.442Z,3.03
2023-04-12T17:24:01.964Z,2.97
2023-04-12T17:26:33.300Z,3.67
2023-04-12T17:29:05.082Z,3.67
2023-04-12T17:31:36.720Z,4.03
2023-04-12T17:34:08.028Z,4.50
2023-04-12T17:36:39.836Z,4.10
2023-04-12T17:39:11.384Z,3.83
2023-04-12T17:41:42.761Z,4.57
2023-04-12T17:44:14.032Z,4.10
2023-04-12T17:46:45.459Z,4.63
2023-04-12T17:49:16.888Z,5.53
2023-04-12T17:51:48.181Z,5.20
2023-04-12T17:54:20.574Z,3.27
2023-04-12T17:56:51.877Z,4.17
2023-04-12T17:59:24.040Z,3.90
2023-04-12T18:01:55.561Z,2.90
2023-04-12T18:04:28.973Z,3.13
2023-04-12T18:07:01.306Z,3.70
2023-04-12T18:09:32.888Z,4.10
2023-04-12T18:12:07.390Z,4.43
2023-04-12T18:14:40.516Z,3.37
2023-04-12T18:17:12.146Z,3.63
2023-04-12T18:19:43.560Z,3.77
2023-04-12T18:22:14.818Z,3.70
2023-04-12T18:24:46.223Z,3.37
2023-04-12T18:27:17.543Z,2.37
2023-04-12T18:29:48.938Z,2.47
2023-04-12T18:32:20.545Z,2.80
2023-04-12T18:34:52.604Z,2.90
2023-04-12T18:37:23.985Z,3.33
2023-04-12T18:39:55.437Z,3.43
2023-04-12T18:42:26.840Z,2.90
2023-04-12T18:44:58.242Z,3.00
2023-04-12T18:47:29.682Z,3.87
2023-04-12T18:50:00.982Z,3.00
2023-04-12T18:52:32.281Z,3.30
2023-04-12T18:55:03.803Z,3.80
2023-04-12T18:57:35.252Z,4.03
2023-04-12T19:00:13.402Z,4.20
2023-04-12T19:02:44.809Z,4.10
2023-04-12T19:05:18.444Z,4.70
2023-04-12T19:07:50.622Z,4.60
2023-04-12T19:10:27.736Z,5.20
2023-04-12T19:12:59.007Z,4.33
2023-04-12T19:15:30.456Z,4.03
2023-04-12T19:18:01.877Z,4.23
2023-04-12T19:20:33.674Z,3.80
2023-04-12T19:23:05.134Z,3.13
2023-04-12T19:25:36.467Z,2.13
2023-04-12T19:28:08.584Z,1.80
2023-04-12T19:30:42.359Z,1.90
2023-04-12T19:33:13.690Z,1.50
2023-04-12T19:35:44.977Z,2.00
2023-04-12T19:38:17.030Z,2.30
2023-04-12T19:40:51.864Z,2.03
2023-04-12T19:43:28.751Z,1.80
2023-04-12T19:46:09.440Z,1.70
2023-04-12T19:48:40.836Z,1.90
2023-04-12T19:51:13.196Z,1.77
2023-04-12T19:53:46.165Z,1.90
2023-04-12T19:56:19.454Z,1.87
2023-04-12T19:58:50.816Z,1.80
2023-04-12T20:01:22.301Z,1.87
2023-04-12T20:03:55.803Z,2.03
2023-04-12T20:06:28.602Z,2.07
2023-04-12T20:09:02.924Z,2.00
2023-04-12T20:11:34.244Z,1.97
2023-04-12T20:14:08.082Z,1.80
2023-04-12T20:16:43.653Z,2.00
2023-04-12T20:19:16.612Z,2.45
2023-04-12T20:21:47.882Z,1.93
2023-04-12T20:24:19.152Z,2.87
2023-04-12T20:26:51.467Z,2.10
2023-04-12T20:29:22.947Z,1.77
2023-04-12T20:31:55.563Z,1.77
2023-04-12T20:34:29.307Z,1.77
2023-04-12T20:37:00.581Z,2.60
2023-04-12T20:39:31.971Z,2.70
2023-04-12T20:42:03.429Z,2.70
2023-04-12T20:44:34.761Z,2.93
2023-04-12T20:47:07.158Z,2.43
2023-04-12T20:49:38.461Z,2.30
2023-04-12T20:52:09.786Z,2.30
2023-04-12T20:54:41.453Z,1.80
2023-04-12T20:57:19.614Z,2.10
2023-04-12T20:59:51.485Z,3.33
2023-04-12T21:02:23.160Z,3.00
2023-04-12T21:04:54.523Z,2.77
2023-04-12T21:07:26.058Z,3.07
2023-04-12T21:09:57.325Z,3.27
2023-04-12T21:12:32.005Z,2.90
2023-04-12T21:15:03.538Z,3.53
2023-04-12T21:17:35.987Z,2.80
2023-04-12T21:20:13.910Z,2.40
2023-04-12T21:22:47.696Z,2.00
2023-04-12T21:25:19.640Z,2.17
2023-04-12T21:27:51.258Z,2.37
2023-04-12T21:30:22.592Z,2.80
2023-04-12T21:32:53.848Z,2.80
2023-04-12T21:35:25.762Z,2.47
2023-04-12T21:37:57.545Z,2.37
2023-04-12T21:40:28.912Z,1.90
2023-04-12T21:43:01.376Z,1.60
2023-04-12T21:45:32.627Z,2.03
2023-04-12T21:48:04.230Z,2.43
2023-04-12T21:50:35.781Z,1.50
2023-04-12T21:53:07.190Z,1.70
2023-04-12T21:55:38.460Z,1.80
2023-04-12T21:58:09.791Z,1.93
2023-04-12T22:00:41.657Z,1.50
2023-04-12T22:03:13.328Z,1.70
2023-04-12T22:05:51.066Z,1.83
2023-04-12T22:08:29.526Z,1.80
2023-04-12T22:11:01.292Z,1.93
2023-04-12T22:13:33.059Z,1.77
2023-04-12T22:16:04.774Z,1.70
2023-04-12T22:18:37.226Z,1.60
2023-04-12T22:21:09.627Z,1.93
2023-04-12T22:23:41.366Z,1.97
2023-04-12T22:26:13.245Z,2.10
2023-04-12T22:28:44.663Z,1.97
2023-04-12T22:31:16.342Z,2.00
2023-04-12T22:33:47.966Z,2.03
2023-04-12T22:36:19.261Z,2.20
2023-04-12T22:38:50.536Z,1.67
2023-04-12T22:41:22.962Z,1.80
2023-04-12T22:44:01.074Z,2.17
2023-04-12T22:46:32.610Z,2.40
2023-04-12T22:49:04.628Z,2.13
2023-04-12T22:51:36.500Z,2.50
2023-04-12T22:54:09.002Z,2.47
2023-04-12T22:56:46.735Z,2.47
2023-04-12T22:59:20.046Z,2.50
2023-04-12T23:01:51.498Z,2.80
2023-04-12T23:04:22.984Z,2.27
2023-04-12T23:06:57.040Z,3.77
2023-04-12T23:09:28.640Z,2.60
2023-04-12T23:12:00.089Z,2.83
2023-04-12T23:14:31.545Z,2.67
2023-04-12T23:17:02.925Z,3.00
2023-04-12T23:19:34.422Z,3.13
2023-04-12T23:22:06.083Z,2.80
2023-04-12T23:24:37.679Z,3.60
2023-04-12T23:27:09.557Z,3.43
2023-04-12T23:29:42.166Z,3.50
2023-04-12T23:32:13.908Z,4.20
2023-04-12T23:34:46.344Z,4.33
2023-04-12T23:37:17.684Z,3.93
2023-04-12T23:39:48.948Z,4.00
2023-04-12T23:42:20.268Z,4.73
2023-04-12T23:44:51.535Z,4.30
2023-04-12T23:47:22.814Z,4.70
2023-04-12T23:49:54.064Z,4.27
2023-04-12T23:52:25.484Z,3.93
2023-04-12T23:54:57.024Z,4.20
2023-04-12T23:57:28.513Z,4.13
2023-04-12T23:59:59.989Z,4.63
